Time;durP1;ratioP1;P1;durP2;ratioP2;P2;SDS_P1;SDS_P2;PMS_P1;PMS_P2;Temp;Humidity;BMP_temperature;BMP_pressure;BME280_temperature;BME280_humidity;BME280_pressure;Samples;Min_cycle;Max_cycle;Signal;HPM_P1;HPM_P2
2021/11/22 00:01:43;;;;;;;33.13;12.30;;;;;;;;;;6246050;23;20227;-90
2021/11/22 00:04:55;;;;;;;25.90;11.03;;;;;;;;;;6245563;23;20171;-91
2021/11/22 00:08:08;;;;;;;29.17;11.07;;;;;;;;;;6245627;22;20187;-90
2021/11/22 00:11:21;;;;;;;26.97;11.23;;;;;;;;;;6244501;22;20178;-89
2021/11/22 00:14:32;;;;;;;31.53;11.80;;;;;;;;;;6244652;23;20311;-91
2021/11/22 00:17:43;;;;;;;31.83;12.03;;;;;;;;;;6243464;23;20193;-90
2021/11/22 00:20:56;;;;;;;30.73;11.93;;;;;;;;;;6242592;23;20171;-91
2021/11/22 00:24:09;;;;;;;31.83;11.93;;;;;;;;;;6244557;22;20168;-90
2021/11/22 00:27:21;;;;;;;27.77;10.73;;;;;;;;;;6245108;23;20175;-90
2021/11/22 00:30:34;;;;;;;32.27;12.43;;;;;;;;;;6244157;23;20298;-89
2021/11/22 00:33:50;;;;;;;32.63;12.33;;;;;;;;;;6245018;23;20310;-90
2021/11/22 00:37:13;;;;;;;31.43;11.67;;;;;;;;;;6245603;23;20174;-90
2021/11/22 00:40:27;;;;;;;30.70;11.73;;;;;;;;;;6245881;23;20175;-92
2021/11/22 00:43:40;;;;;;;29.73;10.90;;;;;;;;;;6242406;23;20223;-91
2021/11/22 00:46:52;;;;;;;32.23;11.90;;;;;;;;;;6243583;23;20166;-90
2021/11/22 00:50:05;;;;;;;32.27;11.80;;;;;;;;;;6243782;22;20170;-90
2021/11/22 00:53:17;;;;;;;28.97;11.47;;;;;;;;;;6244735;23;20215;-90
2021/11/22 00:56:30;;;;;;;28.87;11.87;;;;;;;;;;6244458;22;20165;-91
2021/11/22 00:59:41;;;;;;;28.77;11.50;;;;;;;;;;6244041;23;20170;-91
2021/11/22 01:02:54;;;;;;;35.20;11.73;;;;;;;;;;6243073;23;20237;-90
2021/11/22 01:06:06;;;;;;;28.27;10.67;;;;;;;;;;6244288;23;20190;-91
2021/11/22 01:09:18;;;;;;;28.47;11.07;;;;;;;;;;6245038;22;20250;-90
2021/11/22 01:12:31;;;;;;;30.93;12.10;;;;;;;;;;6244586;23;20198;-89
2021/11/22 01:15:43;;;;;;;29.87;12.03;;;;;;;;;;6244752;22;20222;-90
2021/11/22 01:18:54;;;;;;;30.93;11.33;;;;;;;;;;6245137;22;20193;-91
2021/11/22 01:22:07;;;;;;;35.00;12.43;;;;;;;;;;6245793;23;20159;-90
2021/11/22 01:25:19;;;;;;;27.03;10.70;;;;;;;;;;6245485;23;20166;-90
2021/11/22 01:28:32;;;;;;;34.83;11.83;;;;;;;;;;6245887;23;20219;-90
2021/11/22 01:31:45;;;;;;;28.37;11.30;;;;;;;;;;6246469;22;20151;-90
2021/11/22 01:34:59;;;;;;;31.97;11.37;;;;;;;;;;6248063;23;20226;-90
2021/11/22 01:38:11;;;;;;;34.33;11.67;;;;;;;;;;6247707;23;20194;-91
2021/11/22 01:41:23;;;;;;;28.77;10.50;;;;;;;;;;6246012;23;20166;-91
2021/11/22 01:44:36;;;;;;;34.70;11.37;;;;;;;;;;6244867;23;20242;-90
2021/11/22 01:47:48;;;;;;;30.63;11.87;;;;;;;;;;6244564;23;20167;-92
2021/11/22 01:51:01;;;;;;;28.80;11.37;;;;;;;;;;6244638;23;20167;-91
2021/11/22 01:54:13;;;;;;;35.17;12.63;;;;;;;;;;6244621;23;20174;-92
2021/11/22 01:57:25;;;;;;;30.93;12.03;;;;;;;;;;6245103;23;20267;-92
2021/11/22 02:00:42;;;;;;;29.20;11.67;;;;;;;;;;6244197;23;20213;-91
2021/11/22 02:03:53;;;;;;;31.93;11.47;;;;;;;;;;6246393;22;20162;-90
2021/11/22 02:07:05;;;;;;;29.90;11.23;;;;;;;;;;6245376;23;20167;-91
2021/11/22 02:10:18;;;;;;;28.33;11.10;;;;;;;;;;6246723;23;20171;-91
2021/11/22 02:13:30;;;;;;;32.43;11.97;;;;;;;;;;6244713;23;20166;-91
2021/11/22 02:16:44;;;;;;;28.90;11.83;;;;;;;;;;6245218;22;20154;-90
2021/11/22 02:20:02;;;;;;;28.43;11.33;;;;;;;;;;6245725;23;20218;-89
2021/11/22 02:23:18;;;;;;;26.33;11.37;;;;;;;;;;6245955;22;20185;-89
2021/11/22 02:26:31;;;;;;;33.43;13.00;;;;;;;;;;6245878;23;20167;-90
2021/11/22 02:29:42;;;;;;;27.17;11.03;;;;;;;;;;6244416;23;20154;-90
2021/11/22 02:32:54;;;;;;;29.87;11.23;;;;;;;;;;6245545;22;20163;-90
2021/11/22 02:36:07;;;;;;;31.50;11.13;;;;;;;;;;6247091;23;20154;-92
2021/11/22 02:39:31;;;;;;;28.50;10.87;;;;;;;;;;6247943;23;20198;-90
2021/11/22 02:42:44;;;;;;;34.90;11.30;;;;;;;;;;6248868;22;20203;-91
2021/11/22 02:45:57;;;;;;;29.43;11.10;;;;;;;;;;6247882;23;20170;-90
2021/11/22 02:49:09;;;;;;;33.30;12.23;;;;;;;;;;6247471;23;20166;-89
2021/11/22 02:52:22;;;;;;;25.67;10.37;;;;;;;;;;6248710;22;20195;-90
2021/11/22 02:55:34;;;;;;;29.60;11.63;;;;;;;;;;6247475;23;20610;-91
2021/11/22 02:58:46;;;;;;;29.10;12.10;;;;;;;;;;6248325;22;20193;-88
2021/11/22 03:01:58;;;;;;;29.87;11.70;;;;;;;;;;6248626;22;20282;-90
2021/11/22 03:05:10;;;;;;;28.07;11.83;;;;;;;;;;6247064;23;20835;-90
2021/11/22 03:08:23;;;;;;;30.37;11.90;;;;;;;;;;6247056;22;20174;-88
2021/11/22 03:11:35;;;;;;;30.37;10.87;;;;;;;;;;6246525;22;20221;-90
2021/11/22 03:14:47;;;;;;;30.23;12.03;;;;;;;;;;6246226;23;20170;-90
2021/11/22 03:17:59;;;;;;;30.17;11.70;;;;;;;;;;6246714;23;20218;-90
2021/11/22 03:21:11;;;;;;;29.07;11.43;;;;;;;;;;6246819;22;20186;-90
2021/11/22 03:24:25;;;;;;;30.03;11.57;;;;;;;;;;6246642;23;20165;-90
2021/11/22 03:27:37;;;;;;;30.30;11.63;;;;;;;;;;6247072;22;20159;-90
2021/11/22 03:30:49;;;;;;;28.63;11.50;;;;;;;;;;6246217;23;20244;-91
2021/11/22 03:34:01;;;;;;;30.13;11.60;;;;;;;;;;6245537;23;20198;-90
2021/11/22 03:37:14;;;;;;;29.87;12.67;;;;;;;;;;6247152;22;20170;-91
2021/11/22 03:40:28;;;;;;;30.77;11.70;;;;;;;;;;6245413;22;20174;-89
2021/11/22 03:43:47;;;;;;;30.73;12.60;;;;;;;;;;6246526;23;20166;-88
2021/11/22 03:46:59;;;;;;;28.40;11.70;;;;;;;;;;6245545;23;20233;-90
2021/11/22 03:50:12;;;;;;;32.27;12.53;;;;;;;;;;6247185;23;20234;-90
2021/11/22 03:53:25;;;;;;;32.00;12.50;;;;;;;;;;6245948;22;20175;-90
2021/11/22 03:56:41;;;;;;;30.50;11.97;;;;;;;;;;6246218;22;20148;-90
2021/11/22 03:59:53;;;;;;;33.57;12.87;;;;;;;;;;6246692;23;20201;-89
2021/11/22 04:03:05;;;;;;;32.23;13.07;;;;;;;;;;6246540;23;20186;-87
2021/11/22 04:06:17;;;;;;;34.70;13.67;;;;;;;;;;6245696;22;20235;-91
2021/11/22 04:09:29;;;;;;;44.83;13.70;;;;;;;;;;6245777;23;20168;-92
2021/11/22 04:12:44;;;;;;;37.23;13.23;;;;;;;;;;6245708;22;20158;-90
2021/11/22 04:15:56;;;;;;;30.43;12.43;;;;;;;;;;6244915;23;20216;-90
2021/11/22 04:19:08;;;;;;;33.17;12.43;;;;;;;;;;6244678;22;20221;-92
2021/11/22 04:22:20;;;;;;;36.90;12.67;;;;;;;;;;6244443;23;20162;-90
2021/11/22 04:25:33;;;;;;;34.40;12.63;;;;;;;;;;6244562;23;20242;-90
2021/11/22 04:28:46;;;;;;;30.87;12.03;;;;;;;;;;6244223;23;20167;-90
2021/11/22 04:31:58;;;;;;;36.37;12.47;;;;;;;;;;6244179;22;20178;-91
2021/11/22 04:35:11;;;;;;;31.47;12.33;;;;;;;;;;6247150;22;20233;-91
2021/11/22 04:38:23;;;;;;;34.20;13.40;;;;;;;;;;6244573;23;20197;-91
2021/11/22 04:41:35;;;;;;;39.40;14.77;;;;;;;;;;6244895;23;20613;-91
2021/11/22 04:44:50;;;;;;;31.43;12.33;;;;;;;;;;6261300;23;20223;-92
2021/11/22 04:48:02;;;;;;;33.60;12.50;;;;;;;;;;6243333;22;20167;-91
2021/11/22 04:51:15;;;;;;;35.23;12.70;;;;;;;;;;6244535;23;20166;-89
2021/11/22 04:54:26;;;;;;;28.97;11.80;;;;;;;;;;6243396;23;20502;-90
2021/11/22 04:57:39;;;;;;;32.80;13.17;;;;;;;;;;6243335;23;20266;-89
2021/11/22 05:00:53;;;;;;;30.37;12.17;;;;;;;;;;6240318;22;20170;-89
2021/11/22 05:04:06;;;;;;;31.83;12.40;;;;;;;;;;6242910;23;20197;-91
2021/11/22 05:07:18;;;;;;;33.17;11.93;;;;;;;;;;6244403;22;20166;-90
2021/11/22 05:10:31;;;;;;;36.57;12.90;;;;;;;;;;6242640;23;20253;-90
2021/11/22 05:13:44;;;;;;;32.77;13.63;;;;;;;;;;6242895;23;20217;-90
2021/11/22 05:16:57;;;;;;;38.63;13.80;;;;;;;;;;6243298;22;20190;-91
2021/11/22 05:20:14;;;;;;;35.47;13.83;;;;;;;;;;6245749;23;20198;-90
2021/11/22 05:23:27;;;;;;;32.30;13.00;;;;;;;;;;6242502;23;20170;-89
2021/11/22 05:26:40;;;;;;;33.20;12.53;;;;;;;;;;6244742;23;20186;-90
2021/11/22 05:29:52;;;;;;;32.47;12.33;;;;;;;;;;6242906;23;20217;-91
2021/11/22 05:33:06;;;;;;;31.80;12.30;;;;;;;;;;6244323;23;20179;-90
2021/11/22 05:36:18;;;;;;;29.07;12.00;;;;;;;;;;6245706;23;20261;-90
2021/11/22 05:39:31;;;;;;;46.00;14.17;;;;;;;;;;6244200;23;20194;-89
2021/11/22 05:42:43;;;;;;;34.70;13.77;;;;;;;;;;6244618;22;20162;-90
2021/11/22 05:45:55;;;;;;;39.60;12.57;;;;;;;;;;6244599;22;20167;-91
2021/11/22 05:49:09;;;;;;;36.00;13.80;;;;;;;;;;6245253;22;20209;-91
2021/11/22 05:52:23;;;;;;;33.33;12.70;;;;;;;;;;6246228;23;20187;-90
2021/11/22 05:55:37;;;;;;;36.97;12.43;;;;;;;;;;6245340;22;20246;-91
2021/11/22 05:58:49;;;;;;;33.37;13.07;;;;;;;;;;6243240;23;20190;-90
2021/11/22 06:02:01;;;;;;;35.67;13.33;;;;;;;;;;6245723;23;20171;-92
2021/11/22 06:05:14;;;;;;;30.33;11.97;;;;;;;;;;6245575;22;20231;-90
2021/11/22 06:08:27;;;;;;;30.87;12.57;;;;;;;;;;6245932;23;20249;-89
2021/11/22 06:11:39;;;;;;;36.27;13.03;;;;;;;;;;6245481;23;20169;-91
2021/11/22 06:15:00;;;;;;;34.27;13.23;;;;;;;;;;6245241;23;20166;-90
2021/11/22 06:18:12;;;;;;;32.07;12.73;;;;;;;;;;6260855;23;20171;-90
2021/11/22 06:21:28;;;;;;;32.40;12.77;;;;;;;;;;6246248;23;20186;-89
2021/11/22 06:24:40;;;;;;;32.17;13.60;;;;;;;;;;6247035;22;20166;-92
2021/11/22 06:27:52;;;;;;;32.60;12.57;;;;;;;;;;6229184;23;20170;-88
2021/11/22 06:31:05;;;;;;;34.50;13.40;;;;;;;;;;6244257;23;20170;-90
2021/11/22 07:34:07;;;;;;;40.50;14.00;;;;;;;;;;6203497;23;20216;-90
2021/11/22 07:37:20;;;;;;;38.57;14.90;;;;;;;;;;6186061;23;20176;-88
2021/11/22 07:40:32;;;;;;;38.60;14.53;;;;;;;;;;6185894;23;20623;-93
2021/11/22 07:43:44;;;;;;;36.73;14.13;;;;;;;;;;6186562;23;20171;-92
2021/11/22 07:46:56;;;;;;;39.30;15.27;;;;;;;;;;6182847;23;20179;-90
2021/11/22 07:50:11;;;;;;;39.60;15.00;;;;;;;;;;6184101;23;20655;-90
2021/11/22 07:53:23;;;;;;;44.73;15.10;;;;;;;;;;6186818;23;20200;-90
2021/11/22 07:56:36;;;;;;;43.27;15.50;;;;;;;;;;6186382;23;20219;-90
2021/11/22 07:59:48;;;;;;;40.40;14.63;;;;;;;;;;6184786;23;20199;-90
2021/11/22 08:03:00;;;;;;;44.13;15.17;;;;;;;;;;6188575;23;20155;-91
2021/11/22 08:06:13;;;;;;;39.60;15.60;;;;;;;;;;6185927;23;20184;-89
2021/11/22 08:09:28;;;;;;;38.10;15.20;;;;;;;;;;6186628;23;20224;-90
2021/11/22 08:12:43;;;;;;;40.33;13.37;;;;;;;;;;6186796;23;20172;-89
2021/11/22 08:15:56;;;;;;;39.83;15.07;;;;;;;;;;6185956;23;20159;-90
2021/11/22 08:19:07;;;;;;;38.27;14.50;;;;;;;;;;6185037;23;20195;-91
2021/11/22 08:22:22;;;;;;;41.97;15.10;;;;;;;;;;6185343;23;20148;-90
2021/11/22 08:25:34;;;;;;;42.53;15.63;;;;;;;;;;6185950;23;20212;-91
2021/11/22 08:28:46;;;;;;;39.20;14.70;;;;;;;;;;6184635;23;20231;-91
2021/11/22 08:31:59;;;;;;;36.40;14.13;;;;;;;;;;6187110;23;20192;-90
2021/11/22 08:35:12;;;;;;;42.90;15.23;;;;;;;;;;6184467;23;20171;-91
2021/11/22 08:38:25;;;;;;;42.57;15.87;;;;;;;;;;6185260;23;20192;-90
2021/11/22 08:41:37;;;;;;;40.70;14.57;;;;;;;;;;6185561;23;20174;-90
2021/11/22 08:44:49;;;;;;;36.80;14.70;;;;;;;;;;6186312;23;20265;-90
2021/11/22 08:48:01;;;;;;;43.10;15.23;;;;;;;;;;6185419;23;20176;-91
2021/11/22 08:51:17;;;;;;;42.40;16.23;;;;;;;;;;6240451;22;20230;-92
2021/11/22 18:30:36;;;;;;;14.37;7.00;;;;;;;;;;6214598;22;20236;-90
2021/11/22 18:33:48;;;;;;;15.50;8.17;;;;;;;;;;6248842;23;20163;-91
2021/11/22 18:37:01;;;;;;;12.90;7.03;;;;;;;;;;6251912;22;20208;-91
2021/11/22 18:40:14;;;;;;;18.07;7.73;;;;;;;;;;6250020;22;20206;-92
2021/11/22 18:43:26;;;;;;;14.97;7.40;;;;;;;;;;6247284;22;20221;-89
2021/11/22 18:46:50;;;;;;;20.03;9.70;;;;;;;;;;6250718;23;20174;-92
2021/11/22 18:50:04;;;;;;;14.03;8.00;;;;;;;;;;6249117;23;20236;-91
2021/11/22 18:53:17;;;;;;;12.60;7.10;;;;;;;;;;6249771;22;20159;-93
2021/11/22 18:59:56;;;;;;;13.33;7.00;;;;;;;;;;6250440;23;20240;-91
2021/11/22 19:03:12;;;;;;;13.13;6.60;;;;;;;;;;6249955;23;20166;-91
2021/11/22 19:06:35;;;;;;;13.43;6.87;;;;;;;;;;6248111;22;20195;-91
2021/11/22 19:13:16;;;;;;;10.27;5.73;;;;;;;;;;6268474;23;20165;-90
2021/11/22 19:16:30;;;;;;;8.20;4.90;;;;;;;;;;6250936;22;20183;-90
2021/11/22 19:19:46;;;;;;;10.70;5.43;;;;;;;;;;6252506;22;20181;-89
2021/11/22 19:22:59;;;;;;;10.27;4.27;;;;;;;;;;6250297;22;20166;-91
2021/11/22 19:26:12;;;;;;;7.20;3.67;;;;;;;;;;6251871;22;20218;-91
2021/11/22 19:29:25;;;;;;;7.70;4.40;;;;;;;;;;6251674;22;20274;-91
2021/11/22 19:32:37;;;;;;;8.50;4.60;;;;;;;;;;6249500;23;20170;-92
2021/11/22 19:35:55;;;;;;;8.13;4.03;;;;;;;;;;6249875;22;20170;-91
2021/11/22 19:39:14;;;;;;;6.17;4.07;;;;;;;;;;6251771;22;20163;-91
2021/11/22 19:42:26;;;;;;;7.47;3.83;;;;;;;;;;6250863;22;20290;-91
2021/11/22 23:20:29;;;;;;;9.37;5.37;;;;;;;;;;6237498;22;20222;-90
2021/11/22 23:27:08;;;;;;;9.30;4.63;;;;;;;;;;6250049;23;20194;-92
2021/11/22 23:30:26;;;;;;;8.47;4.97;;;;;;;;;;6251889;22;20218;-89
2021/11/22 23:33:47;;;;;;;8.50;4.83;;;;;;;;;;6268822;22;20167;-90
2021/11/22 23:40:26;;;;;;;9.13;4.70;;;;;;;;;;6251258;22;20251;-89
2021/11/22 23:43:39;;;;;;;9.00;4.97;;;;;;;;;;6250431;22;20167;-90
2021/11/22 23:50:20;;;;;;;8.27;4.73;;;;;;;;;;6248850;23;20330;-91
2021/11/22 23:53:38;;;;;;;9.50;5.30;;;;;;;;;;6252517;23;20170;-90
